Bethlehem Center, New York
Current Conditions -  °F | °C
As of 2:51 AM on Wednesday 22 Oct 2014 (Local Time) from KALB Reporting Station
Overcast Overcast  
Wind Chill: 50°   Ceiling: 800
Heat Index: 50°   Visibility: 9mi
Dew Point: 46°   Wind: 8mph
Humidity: 86%   Direction: 20°NNE
Pressure: 30.02"   Gusts: NA
Location:  42.5925°N, 73.7845°W
Report Text: KALB 220651Z 02007KT 9SM OVC008 10/08 A3002 RMK AO2 SLP166 T01000078
Loading
Personal Weather Stations






























Interactive Weather Map
Tropical Storm Tracking
New forecast layout! Learn more

10-Day Weather Forecast

Advertisements
Track Severe Weather on mobile